createdAt,value
2022-11-26T04:59:44.018Z,3.13
2022-11-26T05:02:10.777Z,2.97
2022-11-26T05:04:37.871Z,3.20
2022-11-26T05:07:04.812Z,3.40
2022-11-26T05:09:31.721Z,3.40
2022-11-26T05:11:58.422Z,3.17
2022-11-26T05:14:25.210Z,3.57
2022-11-26T05:16:51.939Z,3.43
2022-11-26T05:19:18.698Z,3.50
2022-11-26T05:21:45.465Z,3.77
2022-11-26T05:24:12.161Z,3.43
2022-11-26T05:26:38.922Z,4.03
2022-11-26T05:29:05.621Z,3.60
2022-11-26T05:31:32.474Z,4.60
2022-11-26T05:33:59.187Z,4.10
2022-11-26T05:36:25.873Z,4.17
2022-11-26T05:38:52.550Z,4.57
2022-11-26T05:41:19.226Z,4.23
2022-11-26T05:43:45.967Z,4.63
2022-11-26T05:46:16.229Z,4.60
2022-11-26T05:48:43.115Z,4.90
2022-11-26T05:51:10.013Z,4.67
2022-11-26T05:53:36.940Z,4.70
2022-11-26T05:56:03.729Z,4.70
2022-11-26T05:58:30.413Z,4.60
2022-11-26T06:00:57.100Z,4.70
2022-11-26T06:03:23.908Z,5.10
2022-11-26T06:05:50.762Z,4.87
2022-11-26T06:08:17.504Z,5.60
2022-11-26T06:10:44.739Z,6.17
2022-11-26T06:13:11.475Z,5.87
2022-11-26T06:15:38.140Z,5.63
2022-11-26T06:18:04.862Z,4.50
2022-11-26T06:20:31.602Z,4.13
2022-11-26T06:22:58.274Z,4.60
2022-11-26T06:25:25.190Z,3.63
2022-11-26T06:27:52.198Z,3.00
2022-11-26T06:30:19.217Z,3.30
2022-11-26T06:32:45.883Z,4.00
2022-11-26T06:35:12.560Z,6.03
2022-11-26T06:37:39.299Z,8.27
2022-11-26T06:40:06.770Z,5.53
2022-11-26T06:42:33.567Z,6.77
2022-11-26T06:45:00.456Z,7.60
2022-11-26T06:47:27.489Z,4.93
2022-11-26T06:49:54.143Z,2.97
2022-11-26T06:52:20.836Z,8.90
2022-11-26T06:54:47.538Z,17.13
2022-11-26T06:57:14.255Z,15.33
2022-11-26T06:59:40.998Z,7.17
2022-11-26T07:02:09.455Z,3.87
2022-11-26T07:04:36.319Z,2.60
2022-11-26T07:07:03.273Z,2.43
2022-11-26T07:09:29.975Z,1.97
2022-11-26T07:11:56.756Z,2.10
2022-11-26T07:14:23.523Z,3.60
2022-11-26T07:16:50.201Z,5.37
2022-11-26T07:19:16.938Z,5.50
2022-11-26T07:21:43.652Z,4.30
2022-11-26T07:24:10.452Z,4.87
2022-11-26T07:26:37.150Z,3.47
2022-11-26T07:29:04.186Z,2.80
2022-11-26T07:31:30.983Z,2.70
2022-11-26T07:33:58.191Z,3.57
2022-11-26T07:36:29.022Z,5.57
2022-11-26T07:39:01.245Z,5.83
2022-11-26T07:41:29.422Z,5.40
2022-11-26T07:43:56.237Z,4.20
2022-11-26T07:46:25.220Z,4.67
2022-11-26T07:48:52.415Z,4.10
2022-11-26T07:51:23.648Z,3.30
2022-11-26T07:53:50.997Z,3.13
2022-11-26T07:56:18.209Z,2.87
2022-11-26T07:58:45.189Z,4.67
2022-11-26T08:01:15.192Z,5.23
2022-11-26T08:03:44.460Z,5.53
2022-11-26T08:06:14.077Z,3.27
2022-11-26T08:08:41.054Z,3.17
2022-11-26T08:11:23.154Z,2.90
2022-11-26T08:13:53.291Z,3.40
2022-11-26T08:16:20.101Z,6.63
2022-11-26T08:18:46.804Z,8.30
2022-11-26T08:21:13.593Z,9.50
2022-11-26T08:23:40.306Z,8.43
2022-11-26T08:28:56.587Z,11.63
2022-11-26T08:31:24.749Z,11.13
2022-11-26T08:33:51.750Z,12.60
2022-11-26T08:36:18.414Z,8.90
2022-11-26T08:38:45.069Z,5.83
2022-11-26T08:41:13.519Z,5.70
2022-11-26T08:44:05.012Z,4.40
2022-11-26T08:46:27.316Z,4.80
2022-11-26T08:48:56.483Z,3.90
2022-11-26T08:51:23.974Z,3.43
2022-11-26T08:53:50.700Z,5.90
2022-11-26T08:56:17.545Z,4.00
2022-11-26T08:58:45.417Z,3.60
2022-11-26T09:01:21.146Z,4.93
2022-11-26T09:03:53.046Z,6.33
2022-11-26T09:06:22.009Z,6.70
2022-11-26T09:09:07.710Z,13.93
2022-11-26T09:11:37.225Z,11.80
2022-11-26T09:14:04.428Z,5.87
2022-11-26T09:16:31.676Z,6.80
2022-11-26T09:19:03.842Z,4.27
2022-11-26T09:21:30.535Z,3.27
2022-11-26T09:23:57.237Z,5.23
2022-11-26T09:26:25.281Z,5.63
2022-11-26T09:28:52.025Z,10.37
2022-11-26T09:31:19.298Z,8.93
2022-11-26T09:33:47.727Z,8.67
2022-11-26T09:36:15.641Z,10.50
2022-11-26T09:38:42.690Z,9.00
2022-11-26T09:41:21.192Z,13.07
2022-11-26T09:44:22.201Z,6.20
2022-11-26T09:47:16.538Z,6.37
2022-11-26T09:49:48.211Z,6.40
2022-11-26T09:52:19.426Z,9.30
2022-11-26T09:54:48.166Z,7.37
2022-11-26T09:57:24.539Z,9.00
2022-11-26T09:59:53.893Z,3.70
2022-11-26T10:02:20.664Z,3.00
2022-11-26T10:04:48.359Z,4.47
2022-11-26T10:07:37.777Z,8.50
2022-11-26T10:10:16.620Z,4.10
2022-11-26T10:13:16.707Z,10.90
2022-11-26T10:15:46.756Z,4.53
2022-11-26T10:18:43.021Z,6.20
2022-11-26T10:21:58.106Z,7.80
2022-11-26T10:24:31.974Z,3.03
2022-11-26T10:27:04.225Z,3.50
2022-11-26T10:29:46.366Z,2.47
2022-11-26T10:32:23.572Z,2.40
2022-11-26T10:34:55.564Z,2.40
2022-11-26T10:37:25.296Z,2.87
2022-11-26T10:40:01.045Z,3.00
2022-11-26T10:42:44.148Z,2.60
2022-11-26T10:45:24.632Z,3.10
2022-11-26T10:47:51.468Z,3.07
2022-11-26T10:53:21.774Z,6.40
2022-11-26T10:55:48.801Z,5.10
2022-11-26T10:58:19.988Z,3.43
2022-11-26T11:00:49.663Z,3.60
2022-11-26T11:03:38.584Z,3.60
2022-11-26T11:06:20.445Z,3.20
2022-11-26T11:08:49.073Z,3.50
2022-11-26T11:11:29.842Z,4.30
2022-11-26T11:13:57.550Z,3.60
2022-11-26T11:16:44.165Z,3.00
2022-11-26T11:19:37.137Z,6.27
2022-11-26T11:22:05.451Z,6.80
2022-11-26T11:24:32.310Z,5.83
2022-11-26T11:27:02.762Z,5.00
2022-11-26T11:29:29.393Z,4.90
2022-11-26T11:31:57.734Z,4.47
2022-11-26T11:34:43.079Z,4.60
2022-11-26T11:37:14.859Z,5.20
2022-11-26T11:39:42.620Z,5.47
2022-11-26T11:42:28.199Z,5.23
2022-11-26T11:44:56.398Z,5.93
2022-11-26T11:47:45.737Z,8.37
2022-11-26T11:50:25.962Z,8.13
2022-11-26T11:53:16.186Z,5.53
2022-11-26T11:56:12.847Z,5.03
2022-11-26T11:58:52.149Z,5.23
2022-11-26T12:01:40.815Z,4.07
2022-11-26T12:04:24.876Z,4.67
2022-11-26T12:07:13.354Z,4.77
2022-11-26T12:09:50.512Z,5.53
2022-11-26T12:12:28.825Z,5.03
2022-11-26T12:14:58.877Z,4.87
2022-11-26T12:17:40.045Z,5.60
2022-11-26T12:20:34.468Z,5.00
2022-11-26T12:23:24.397Z,4.90
2022-11-26T12:26:01.900Z,4.50
2022-11-26T12:28:34.150Z,4.63
2022-11-26T12:31:05.813Z,4.93
2022-11-26T12:33:43.229Z,5.30
2022-11-26T12:36:36.192Z,4.87
2022-11-26T12:39:06.595Z,5.33
2022-11-26T12:41:49.056Z,4.90
2022-11-26T12:44:33.980Z,4.93
2022-11-26T12:47:14.639Z,5.53
2022-11-26T12:50:03.229Z,5.30
2022-11-26T12:52:42.015Z,5.70
2022-11-26T12:55:28.695Z,5.43
2022-11-26T12:58:17.982Z,6.50
2022-11-26T13:00:45.438Z,5.80
2022-11-26T13:03:18.372Z,5.03
2022-11-26T13:06:20.833Z,5.80
2022-11-26T13:09:15.378Z,4.70
2022-11-26T13:11:42.193Z,4.90
2022-11-26T13:14:27.078Z,6.00
2022-11-26T13:17:18.172Z,5.67
2022-11-26T13:20:08.403Z,6.17
2022-11-26T13:22:53.791Z,5.10
2022-11-26T13:25:33.258Z,4.43
2022-11-26T13:28:02.665Z,4.50
2022-11-26T13:30:32.086Z,5.10
2022-11-26T13:33:35.115Z,4.13
2022-11-26T13:36:35.197Z,3.80
2022-11-26T13:39:39.609Z,3.40
2022-11-26T13:42:15.434Z,3.57
2022-11-26T13:45:09.808Z,3.00
2022-11-26T13:48:00.517Z,3.40
2022-11-26T13:50:37.939Z,3.73
2022-11-26T13:53:26.488Z,3.90
2022-11-26T13:56:01.831Z,4.90
2022-11-26T13:58:36.741Z,4.07
2022-11-26T14:01:28.427Z,3.20
2022-11-26T14:03:56.346Z,2.73
2022-11-26T14:06:23.604Z,3.33
2022-11-26T14:08:52.214Z,2.93
2022-11-26T14:11:40.750Z,3.33
2022-11-26T14:14:25.825Z,2.90
2022-11-26T14:17:01.411Z,2.77
2022-11-26T14:19:40.122Z,2.70
2022-11-26T14:22:25.317Z,2.57
2022-11-26T14:24:52.056Z,2.80
2022-11-26T14:27:22.082Z,2.67
2022-11-26T14:30:22.883Z,2.90
2022-11-26T14:33:15.840Z,3.33
2022-11-26T14:35:56.299Z,2.80
2022-11-26T14:38:28.713Z,3.13
2022-11-26T14:41:00.621Z,3.37
2022-11-26T14:43:29.102Z,3.13
2022-11-26T14:46:17.285Z,3.33
2022-11-26T14:48:46.465Z,3.50
2022-11-26T14:51:21.168Z,3.50
2022-11-26T14:53:49.799Z,3.43
2022-11-26T14:56:18.422Z,4.20
2022-11-26T14:58:57.058Z,4.80
2022-11-26T15:01:32.366Z,4.27
2022-11-26T15:04:04.612Z,4.40
2022-11-26T15:06:40.541Z,4.97
2022-11-26T15:09:16.760Z,4.47
2022-11-26T15:12:05.485Z,4.50
2022-11-26T15:14:54.558Z,4.50
2022-11-26T15:17:24.008Z,4.23
2022-11-26T15:19:52.601Z,4.73
2022-11-26T15:22:25.190Z,5.30
2022-11-26T15:24:52.886Z,4.83
2022-11-26T15:27:37.352Z,4.40
2022-11-26T15:30:29.287Z,4.50
2022-11-26T15:33:17.116Z,3.80
2022-11-26T15:35:43.958Z,3.77
2022-11-26T15:38:19.918Z,3.63
2022-11-26T15:40:58.268Z,3.50
2022-11-26T15:43:30.709Z,3.47
2022-11-26T15:46:11.886Z,3.67
2022-11-26T15:48:52.123Z,3.50
2022-11-26T15:51:51.453Z,3.17
2022-11-26T15:54:24.052Z,3.20
2022-11-26T15:56:55.895Z,3.43
2022-11-26T15:59:25.873Z,3.27
2022-11-26T16:01:53.524Z,4.70
2022-11-26T16:04:38.782Z,4.10
2022-11-26T16:07:18.080Z,4.20
2022-11-26T16:09:46.253Z,3.60
2022-11-26T16:12:33.188Z,4.93
2022-11-26T16:15:27.125Z,7.90
2022-11-26T16:17:54.013Z,7.03
2022-11-26T16:20:23.781Z,4.30
2022-11-26T16:22:54.245Z,3.60
2022-11-26T16:25:34.344Z,3.40
2022-11-26T16:28:14.402Z,4.23
2022-11-26T16:30:44.012Z,4.00
2022-11-26T16:33:11.167Z,4.47
2022-11-26T16:35:46.761Z,5.03
2022-11-26T16:38:21.456Z,5.00
2022-11-26T16:40:48.445Z,4.00
2022-11-26T16:43:15.298Z,4.07
2022-11-26T16:45:42.120Z,5.33
2022-11-26T16:48:23.037Z,5.93
2022-11-26T16:50:50.313Z,4.93
2022-11-26T16:53:17.084Z,4.73
2022-11-26T16:55:43.820Z,4.87
2022-11-26T16:58:21.912Z,5.27
2022-11-26T17:00:56.841Z,6.03
2022-11-26T17:03:27.422Z,7.23
2022-11-26T17:06:02.299Z,7.40
2022-11-26T17:11:17.852Z,11.00
2022-11-26T17:16:49.727Z,9.83
2022-11-26T17:19:16.649Z,10.40
2022-11-26T17:21:43.442Z,6.17
2022-11-26T17:24:10.284Z,5.20
2022-11-26T17:30:36.850Z,6.03
2022-11-26T17:33:23.161Z,7.07
2022-11-26T17:35:57.096Z,5.03
2022-11-26T17:38:32.987Z,5.00
2022-11-26T17:44:49.559Z,12.80
2022-11-26T17:47:18.631Z,7.83
2022-11-26T17:49:47.035Z,6.77
2022-11-26T17:52:15.025Z,7.47
2022-11-26T17:54:50.397Z,9.17
2022-11-26T17:57:28.726Z,7.83
2022-11-26T17:59:56.044Z,8.07
2022-11-26T18:02:23.009Z,6.93
2022-11-26T18:04:58.146Z,7.73
2022-11-26T18:07:25.341Z,8.57
